sensor_id;sensor_type;location;lat;lon;timestamp;P1;durP1;ratioP1;P2;durP2;ratioP2
16994;SDS011;8614;48.522;9.206;2023-02-28T03:01:12;10.47;;;9.67;;
16994;SDS011;8614;48.522;9.206;2023-02-28T03:03:42;9.63;;;8.90;;
16994;SDS011;8614;48.522;9.206;2023-02-28T03:06:11;10.50;;;9.50;;
16994;SDS011;8614;48.522;9.206;2023-02-28T03:08:38;9.13;;;8.43;;
16994;SDS011;8614;48.522;9.206;2023-02-28T03:11:06;10.53;;;9.60;;
16994;SDS011;8614;48.522;9.206;2023-02-28T03:13:52;10.50;;;9.50;;
16994;SDS011;8614;48.522;9.206;2023-02-28T03:16:39;9.93;;;9.07;;
16994;SDS011;8614;48.522;9.206;2023-02-28T03:19:24;10.30;;;9.40;;
16994;SDS011;8614;48.522;9.206;2023-02-28T03:22:03;10.73;;;9.77;;
16994;SDS011;8614;48.522;9.206;2023-02-28T03:24:41;9.70;;;8.90;;
16994;SDS011;8614;48.522;9.206;2023-02-28T03:27:14;10.47;;;9.60;;
16994;SDS011;8614;48.522;9.206;2023-02-28T03:29:46;11.00;;;10.00;;
16994;SDS011;8614;48.522;9.206;2023-02-28T03:32:19;10.77;;;9.90;;
16994;SDS011;8614;48.522;9.206;2023-02-28T03:34:54;10.33;;;9.47;;
16994;SDS011;8614;48.522;9.206;2023-02-28T03:37:28;10.50;;;9.50;;
16994;SDS011;8614;48.522;9.206;2023-02-28T03:40:01;10.77;;;9.67;;
16994;SDS011;8614;48.522;9.206;2023-02-28T03:42:34;9.70;;;9.00;;
16994;SDS011;8614;48.522;9.206;2023-02-28T03:45:04;10.13;;;9.33;;
16994;SDS011;8614;48.522;9.206;2023-02-28T03:47:38;10.03;;;9.13;;
16994;SDS011;8614;48.522;9.206;2023-02-28T03:50:10;10.77;;;9.97;;
16994;SDS011;8614;48.522;9.206;2023-02-28T03:52:44;10.63;;;9.67;;
16994;SDS011;8614;48.522;9.206;2023-02-28T03:55:14;11.20;;;10.20;;
16994;SDS011;8614;48.522;9.206;2023-02-28T03:57:45;11.17;;;10.27;;
16994;SDS011;8614;48.522;9.206;2023-02-28T04:00:21;11.00;;;9.93;;
16994;SDS011;8614;48.522;9.206;2023-02-28T04:02:55;12.00;;;10.90;;
16994;SDS011;8614;48.522;9.206;2023-02-28T04:05:23;11.50;;;10.57;;
16994;SDS011;8614;48.522;9.206;2023-02-28T04:07:50;11.43;;;10.47;;
16994;SDS011;8614;48.522;9.206;2023-02-28T04:10:18;11.30;;;10.23;;
16994;SDS011;8614;48.522;9.206;2023-02-28T04:12:45;11.40;;;10.30;;
16994;SDS011;8614;48.522;9.206;2023-02-28T04:15:11;11.13;;;10.13;;
16994;SDS011;8614;48.522;9.206;2023-02-28T04:17:38;10.87;;;9.97;;
16994;SDS011;8614;48.522;9.206;2023-02-28T04:20:07;11.90;;;10.87;;
16994;SDS011;8614;48.522;9.206;2023-02-28T04:22:35;11.10;;;10.20;;
16994;SDS011;8614;48.522;9.206;2023-02-28T04:25:03;11.17;;;10.33;;
16994;SDS011;8614;48.522;9.206;2023-02-28T04:27:31;10.40;;;9.43;;
16994;SDS011;8614;48.522;9.206;2023-02-28T04:29:58;10.60;;;9.80;;
16994;SDS011;8614;48.522;9.206;2023-02-28T04:32:25;11.57;;;10.47;;
16994;SDS011;8614;48.522;9.206;2023-02-28T04:34:52;11.17;;;10.27;;
16994;SDS011;8614;48.522;9.206;2023-02-28T04:37:20;10.80;;;10.00;;
16994;SDS011;8614;48.522;9.206;2023-02-28T04:39:55;10.90;;;10.00;;
16994;SDS011;8614;48.522;9.206;2023-02-28T04:42:25;11.03;;;10.03;;
16994;SDS011;8614;48.522;9.206;2023-02-28T04:44:51;11.93;;;10.93;;
16994;SDS011;8614;48.522;9.206;2023-02-28T04:47:18;11.37;;;10.40;;
16994;SDS011;8614;48.522;9.206;2023-02-28T04:49:45;11.57;;;10.40;;
16994;SDS011;8614;48.522;9.206;2023-02-28T04:52:12;12.60;;;11.33;;
16994;SDS011;8614;48.522;9.206;2023-02-28T04:54:40;12.13;;;11.03;;
16994;SDS011;8614;48.522;9.206;2023-02-28T04:57:07;11.30;;;10.30;;
16994;SDS011;8614;48.522;9.206;2023-02-28T04:59:34;11.93;;;11.03;;
16994;SDS011;8614;48.522;9.206;2023-02-28T05:02:01;11.43;;;10.63;;
16994;SDS011;8614;48.522;9.206;2023-02-28T05:04:31;13.63;;;12.00;;
16994;SDS011;8614;48.522;9.206;2023-02-28T05:06:59;11.50;;;10.60;;
16994;SDS011;8614;48.522;9.206;2023-02-28T05:09:26;11.97;;;11.07;;
16994;SDS011;8614;48.522;9.206;2023-02-28T05:11:54;12.37;;;11.33;;
16994;SDS011;8614;48.522;9.206;2023-02-28T05:14:21;13.37;;;12.13;;
16994;SDS011;8614;48.522;9.206;2023-02-28T05:16:48;12.30;;;11.30;;
16994;SDS011;8614;48.522;9.206;2023-02-28T05:19:15;12.43;;;11.33;;
16994;SDS011;8614;48.522;9.206;2023-02-28T05:21:48;12.37;;;11.27;;
16994;SDS011;8614;48.522;9.206;2023-02-28T05:24:17;12.47;;;11.47;;
16994;SDS011;8614;48.522;9.206;2023-02-28T05:26:48;12.13;;;11.13;;
16994;SDS011;8614;48.522;9.206;2023-02-28T05:29:18;11.83;;;10.73;;
16994;SDS011;8614;48.522;9.206;2023-02-28T05:31:45;13.03;;;11.80;;
16994;SDS011;8614;48.522;9.206;2023-02-28T05:34:12;13.03;;;11.00;;
16994;SDS011;8614;48.522;9.206;2023-02-28T05:36:40;12.63;;;11.43;;
16994;SDS011;8614;48.522;9.206;2023-02-28T05:39:07;12.33;;;11.33;;
16994;SDS011;8614;48.522;9.206;2023-02-28T05:41:38;11.90;;;11.00;;
16994;SDS011;8614;48.522;9.206;2023-02-28T05:44:08;13.33;;;12.03;;
16994;SDS011;8614;48.522;9.206;2023-02-28T05:46:37;12.63;;;11.63;;
16994;SDS011;8614;48.522;9.206;2023-02-28T05:49:04;12.20;;;11.27;;
16994;SDS011;8614;48.522;9.206;2023-02-28T05:51:31;12.17;;;11.17;;
16994;SDS011;8614;48.522;9.206;2023-02-28T05:53:59;12.57;;;11.57;;
16994;SDS011;8614;48.522;9.206;2023-02-28T05:56:27;13.30;;;12.10;;
16994;SDS011;8614;48.522;9.206;2023-02-28T05:58:54;13.57;;;12.30;;
16994;SDS011;8614;48.522;9.206;2023-02-28T06:01:25;13.90;;;12.73;;
16994;SDS011;8614;48.522;9.206;2023-02-28T06:03:59;13.17;;;12.17;;
16994;SDS011;8614;48.522;9.206;2023-02-28T06:06:26;13.47;;;12.27;;
16994;SDS011;8614;48.522;9.206;2023-02-28T06:08:54;13.77;;;12.53;;
16994;SDS011;8614;48.522;9.206;2023-02-28T06:11:21;13.60;;;12.50;;
16994;SDS011;8614;48.522;9.206;2023-02-28T06:13:52;14.20;;;12.90;;
16994;SDS011;8614;48.522;9.206;2023-02-28T06:16:20;12.80;;;11.70;;
16994;SDS011;8614;48.522;9.206;2023-02-28T06:18:47;13.33;;;12.20;;
16994;SDS011;8614;48.522;9.206;2023-02-28T06:21:15;14.23;;;12.93;;
16994;SDS011;8614;48.522;9.206;2023-02-28T06:23:42;13.80;;;12.50;;
16994;SDS011;8614;48.522;9.206;2023-02-28T06:26:09;13.80;;;12.60;;
16994;SDS011;8614;48.522;9.206;2023-02-28T06:28:35;13.43;;;12.23;;
16994;SDS011;8614;48.522;9.206;2023-02-28T06:31:05;14.10;;;12.93;;
16994;SDS011;8614;48.522;9.206;2023-02-28T06:33:33;13.80;;;12.70;;
16994;SDS011;8614;48.522;9.206;2023-02-28T06:36:00;14.20;;;12.90;;
16994;SDS011;8614;48.522;9.206;2023-02-28T06:38:28;14.30;;;13.00;;
16994;SDS011;8614;48.522;9.206;2023-02-28T06:40:55;13.87;;;12.57;;
16994;SDS011;8614;48.522;9.206;2023-02-28T06:43:24;14.50;;;13.20;;
16994;SDS011;8614;48.522;9.206;2023-02-28T06:45:54;14.73;;;13.47;;
16994;SDS011;8614;48.522;9.206;2023-02-28T06:48:21;14.67;;;13.27;;
16994;SDS011;8614;48.522;9.206;2023-02-28T06:50:48;13.97;;;12.67;;
16994;SDS011;8614;48.522;9.206;2023-02-28T06:53:15;14.77;;;13.37;;
16994;SDS011;8614;48.522;9.206;2023-02-28T06:55:43;15.00;;;13.60;;
16994;SDS011;8614;48.522;9.206;2023-02-28T06:58:10;14.73;;;13.47;;
16994;SDS011;8614;48.522;9.206;2023-02-28T07:00:43;13.87;;;12.67;;
16994;SDS011;8614;48.522;9.206;2023-02-28T07:03:11;13.70;;;12.57;;
16994;SDS011;8614;48.522;9.206;2023-02-28T07:05:40;14.57;;;13.17;;
16994;SDS011;8614;48.522;9.206;2023-02-28T07:08:07;14.63;;;13.33;;
16994;SDS011;8614;48.522;9.206;2023-02-28T07:10:34;13.80;;;12.60;;
16994;SDS011;8614;48.522;9.206;2023-02-28T07:13:04;14.43;;;13.17;;
16994;SDS011;8614;48.522;9.206;2023-02-28T07:15:31;14.50;;;13.17;;
16994;SDS011;8614;48.522;9.206;2023-02-28T07:17:58;13.90;;;12.70;;
16994;SDS011;8614;48.522;9.206;2023-02-28T07:20:25;14.23;;;13.03;;
16994;SDS011;8614;48.522;9.206;2023-02-28T07:22:52;14.60;;;13.23;;
16994;SDS011;8614;48.522;9.206;2023-02-28T07:25:21;13.70;;;12.40;;
16994;SDS011;8614;48.522;9.206;2023-02-28T07:27:48;15.07;;;13.77;;
16994;SDS011;8614;48.522;9.206;2023-02-28T07:30:17;14.73;;;13.33;;
16994;SDS011;8614;48.522;9.206;2023-02-28T07:32:44;15.07;;;13.60;;
16994;SDS011;8614;48.522;9.206;2023-02-28T07:35:11;14.40;;;13.10;;
16994;SDS011;8614;48.522;9.206;2023-02-28T07:37:40;14.67;;;13.47;;
16994;SDS011;8614;48.522;9.206;2023-02-28T07:40:08;15.33;;;13.93;;
16994;SDS011;8614;48.522;9.206;2023-02-28T07:42:37;16.33;;;14.83;;
16994;SDS011;8614;48.522;9.206;2023-02-28T07:45:05;15.23;;;13.93;;
16994;SDS011;8614;48.522;9.206;2023-02-28T07:47:35;15.87;;;14.20;;
16994;SDS011;8614;48.522;9.206;2023-02-28T07:50:01;15.53;;;14.13;;
16994;SDS011;8614;48.522;9.206;2023-02-28T07:52:28;15.43;;;14.03;;
16994;SDS011;8614;48.522;9.206;2023-02-28T07:54:55;16.20;;;14.70;;
16994;SDS011;8614;48.522;9.206;2023-02-28T07:57:22;16.27;;;14.77;;
16994;SDS011;8614;48.522;9.206;2023-02-28T07:59:49;16.60;;;15.07;;
16994;SDS011;8614;48.522;9.206;2023-02-28T08:02:16;16.00;;;14.50;;
16994;SDS011;8614;48.522;9.206;2023-02-28T08:04:45;15.70;;;14.07;;
16994;SDS011;8614;48.522;9.206;2023-02-28T08:07:13;15.67;;;14.13;;
16994;SDS011;8614;48.522;9.206;2023-02-28T08:09:41;16.00;;;14.60;;
16994;SDS011;8614;48.522;9.206;2023-02-28T08:12:08;15.47;;;14.00;;
16994;SDS011;8614;48.522;9.206;2023-02-28T08:14:35;15.90;;;14.33;;
16994;SDS011;8614;48.522;9.206;2023-02-28T08:17:02;16.60;;;14.90;;
16994;SDS011;8614;48.522;9.206;2023-02-28T08:19:30;16.43;;;14.73;;
16994;SDS011;8614;48.522;9.206;2023-02-28T08:21:58;15.43;;;14.03;;
16994;SDS011;8614;48.522;9.206;2023-02-28T08:24:25;16.23;;;14.77;;
16994;SDS011;8614;48.522;9.206;2023-02-28T08:26:52;15.73;;;14.23;;
16994;SDS011;8614;48.522;9.206;2023-02-28T08:29:19;16.90;;;15.30;;
16994;SDS011;8614;48.522;9.206;2023-02-28T08:31:45;15.17;;;13.87;;
16994;SDS011;8614;48.522;9.206;2023-02-28T08:34:13;15.93;;;13.97;;
16994;SDS011;8614;48.522;9.206;2023-02-28T08:36:42;14.97;;;13.63;;
16994;SDS011;8614;48.522;9.206;2023-02-28T08:39:11;15.83;;;13.53;;
16994;SDS011;8614;48.522;9.206;2023-02-28T08:41:38;15.63;;;14.33;;
16994;SDS011;8614;48.522;9.206;2023-02-28T08:44:06;14.83;;;13.53;;
16994;SDS011;8614;48.522;9.206;2023-02-28T08:46:33;15.07;;;13.77;;
16994;SDS011;8614;48.522;9.206;2023-02-28T08:48:59;15.50;;;14.00;;
16994;SDS011;8614;48.522;9.206;2023-02-28T08:51:27;15.27;;;13.97;;
16994;SDS011;8614;48.522;9.206;2023-02-28T08:53:55;16.23;;;14.67;;
16994;SDS011;8614;48.522;9.206;2023-02-28T08:56:26;15.90;;;14.27;;
16994;SDS011;8614;48.522;9.206;2023-02-28T08:58:54;14.87;;;13.57;;
16994;SDS011;8614;48.522;9.206;2023-02-28T09:01:22;15.23;;;13.77;;
16994;SDS011;8614;48.522;9.206;2023-02-28T09:03:52;15.37;;;13.67;;
16994;SDS011;8614;48.522;9.206;2023-02-28T09:06:20;15.40;;;13.87;;
16994;SDS011;8614;48.522;9.206;2023-02-28T09:08:48;16.40;;;14.80;;
16994;SDS011;8614;48.522;9.206;2023-02-28T09:11:15;15.70;;;14.20;;
16994;SDS011;8614;48.522;9.206;2023-02-28T09:13:45;16.60;;;14.03;;
16994;SDS011;8614;48.522;9.206;2023-02-28T09:16:12;15.67;;;14.10;;
16994;SDS011;8614;48.522;9.206;2023-02-28T09:18:41;15.37;;;14.07;;
16994;SDS011;8614;48.522;9.206;2023-02-28T09:21:09;16.50;;;14.90;;
16994;SDS011;8614;48.522;9.206;2023-02-28T09:23:39;16.10;;;14.57;;
16994;SDS011;8614;48.522;9.206;2023-02-28T09:26:06;15.77;;;14.37;;
16994;SDS011;8614;48.522;9.206;2023-02-28T09:28:33;15.67;;;14.07;;
16994;SDS011;8614;48.522;9.206;2023-02-28T09:31:01;16.83;;;15.23;;
16994;SDS011;8614;48.522;9.206;2023-02-28T09:33:30;15.97;;;14.27;;
16994;SDS011;8614;48.522;9.206;2023-02-28T09:35:57;15.63;;;14.23;;
16994;SDS011;8614;48.522;9.206;2023-02-28T09:38:25;15.47;;;13.87;;
16994;SDS011;8614;48.522;9.206;2023-02-28T09:40:53;15.73;;;14.27;;
16994;SDS011;8614;48.522;9.206;2023-02-28T09:43:22;16.40;;;14.80;;
16994;SDS011;8614;48.522;9.206;2023-02-28T09:45:52;16.37;;;14.00;;
16994;SDS011;8614;48.522;9.206;2023-02-28T09:48:28;15.77;;;14.30;;
16994;SDS011;8614;48.522;9.206;2023-02-28T09:50:59;15.37;;;13.97;;
16994;SDS011;8614;48.522;9.206;2023-02-28T09:53:29;15.60;;;14.20;;
16994;SDS011;8614;48.522;9.206;2023-02-28T09:55:59;15.03;;;13.63;;
16994;SDS011;8614;48.522;9.206;2023-02-28T09:58:32;14.97;;;13.60;;
16994;SDS011;8614;48.522;9.206;2023-02-28T10:01:05;16.10;;;14.50;;
16994;SDS011;8614;48.522;9.206;2023-02-28T10:03:40;14.80;;;13.40;;
16994;SDS011;8614;48.522;9.206;2023-02-28T10:06:13;15.80;;;14.30;;
16994;SDS011;8614;48.522;9.206;2023-02-28T10:08:46;15.43;;;14.03;;
16994;SDS011;8614;48.522;9.206;2023-02-28T10:11:18;15.63;;;14.03;;
16994;SDS011;8614;48.522;9.206;2023-02-28T10:13:52;15.10;;;13.70;;
16994;SDS011;8614;48.522;9.206;2023-02-28T10:16:27;15.17;;;13.87;;
16994;SDS011;8614;48.522;9.206;2023-02-28T10:18:59;16.37;;;14.87;;
16994;SDS011;8614;48.522;9.206;2023-02-28T10:21:30;16.17;;;14.63;;
16994;SDS011;8614;48.522;9.206;2023-02-28T10:24:03;16.10;;;14.60;;
16994;SDS011;8614;48.522;9.206;2023-02-28T10:26:37;15.87;;;14.37;;
16994;SDS011;8614;48.522;9.206;2023-02-28T10:29:04;16.70;;;15.00;;
16994;SDS011;8614;48.522;9.206;2023-02-28T10:31:33;15.77;;;14.27;;
16994;SDS011;8614;48.522;9.206;2023-02-28T10:34:02;16.90;;;15.13;;
16994;SDS011;8614;48.522;9.206;2023-02-28T10:36:31;15.87;;;14.40;;
16994;SDS011;8614;48.522;9.206;2023-02-28T10:38:58;16.43;;;14.77;;
16994;SDS011;8614;48.522;9.206;2023-02-28T10:41:28;15.93;;;14.47;;
16994;SDS011;8614;48.522;9.206;2023-02-28T10:44:12;15.57;;;14.13;;
16994;SDS011;8614;48.522;9.206;2023-02-28T10:46:41;15.50;;;13.97;;
16994;SDS011;8614;48.522;9.206;2023-02-28T10:49:14;15.37;;;13.93;;
16994;SDS011;8614;48.522;9.206;2023-02-28T10:51:45;15.90;;;14.40;;
16994;SDS011;8614;48.522;9.206;2023-02-28T10:54:16;16.20;;;14.60;;
16994;SDS011;8614;48.522;9.206;2023-02-28T10:56:45;16.73;;;15.03;;
16994;SDS011;8614;48.522;9.206;2023-02-28T10:59:32;15.83;;;14.43;;
16994;SDS011;8614;48.522;9.206;2023-02-28T11:01:59;15.97;;;14.47;;
16994;SDS011;8614;48.522;9.206;2023-02-28T11:04:34;16.00;;;14.40;;
16994;SDS011;8614;48.522;9.206;2023-02-28T11:07:04;16.00;;;14.60;;
16994;SDS011;8614;48.522;9.206;2023-02-28T11:09:33;16.50;;;14.97;;
16994;SDS011;8614;48.522;9.206;2023-02-28T11:12:01;16.97;;;15.37;;
16994;SDS011;8614;48.522;9.206;2023-02-28T11:14:31;15.43;;;13.97;;
16994;SDS011;8614;48.522;9.206;2023-02-28T11:17:02;15.27;;;13.97;;
16994;SDS011;8614;48.522;9.206;2023-02-28T11:19:44;15.60;;;14.20;;
16994;SDS011;8614;48.522;9.206;2023-02-28T11:22:15;16.87;;;14.93;;
16994;SDS011;8614;48.522;9.206;2023-02-28T11:24:45;16.00;;;14.57;;
16994;SDS011;8614;48.522;9.206;2023-02-28T11:30:26;15.80;;;14.33;;
16994;SDS011;8614;48.522;9.206;2023-02-28T11:32:59;15.90;;;14.50;;
16994;SDS011;8614;48.522;9.206;2023-02-28T11:35:28;15.70;;;14.33;;
16994;SDS011;8614;48.522;9.206;2023-02-28T11:37:59;17.20;;;15.53;;
16994;SDS011;8614;48.522;9.206;2023-02-28T11:40:29;16.20;;;14.53;;
16994;SDS011;8614;48.522;9.206;2023-02-28T11:43:07;15.60;;;14.20;;
16994;SDS011;8614;48.522;9.206;2023-02-28T11:45:53;15.80;;;14.43;;
16994;SDS011;8614;48.522;9.206;2023-02-28T11:48:31;17.47;;;16.03;;
16994;SDS011;8614;48.522;9.206;2023-02-28T11:51:08;16.13;;;14.73;;
16994;SDS011;8614;48.522;9.206;2023-02-28T11:53:50;16.83;;;15.33;;
16994;SDS011;8614;48.522;9.206;2023-02-28T11:56:25;16.63;;;15.17;;
16994;SDS011;8614;48.522;9.206;2023-02-28T11:59:02;16.70;;;15.23;;
16994;SDS011;8614;48.522;9.206;2023-02-28T12:01:50;15.17;;;13.77;;
16994;SDS011;8614;48.522;9.206;2023-02-28T12:04:33;16.20;;;14.70;;
16994;SDS011;8614;48.522;9.206;2023-02-28T12:07:08;16.27;;;14.87;;
16994;SDS011;8614;48.522;9.206;2023-02-28T12:09:44;15.53;;;14.13;;
16994;SDS011;8614;48.522;9.206;2023-02-28T12:12:22;15.23;;;13.83;;
16994;SDS011;8614;48.522;9.206;2023-02-28T12:15:04;17.03;;;15.43;;
16994;SDS011;8614;48.522;9.206;2023-02-28T12:18:03;17.17;;;15.47;;
16994;SDS011;8614;48.522;9.206;2023-02-28T12:20:41;17.37;;;15.73;;
16994;SDS011;8614;48.522;9.206;2023-02-28T12:23:24;15.97;;;14.57;;
16994;SDS011;8614;48.522;9.206;2023-02-28T12:26:07;16.43;;;15.03;;
16994;SDS011;8614;48.522;9.206;2023-02-28T12:28:42;16.23;;;14.63;;
16994;SDS011;8614;48.522;9.206;2023-02-28T12:31:14;16.20;;;14.73;;
16994;SDS011;8614;48.522;9.206;2023-02-28T12:33:47;17.20;;;15.50;;
16994;SDS011;8614;48.522;9.206;2023-02-28T12:36:18;17.00;;;15.50;;
16994;SDS011;8614;48.522;9.206;2023-02-28T12:38:49;17.07;;;15.47;;
16994;SDS011;8614;48.522;9.206;2023-02-28T12:41:22;16.73;;;15.23;;
16994;SDS011;8614;48.522;9.206;2023-02-28T12:43:55;16.53;;;15.13;;
16994;SDS011;8614;48.522;9.206;2023-02-28T12:46:28;16.10;;;14.53;;
16994;SDS011;8614;48.522;9.206;2023-02-28T12:49:00;15.67;;;14.30;;
16994;SDS011;8614;48.522;9.206;2023-02-28T12:51:32;15.37;;;14.07;;
16994;SDS011;8614;48.522;9.206;2023-02-28T12:54:07;16.47;;;14.90;;
16994;SDS011;8614;48.522;9.206;2023-02-28T12:56:42;15.90;;;14.50;;
16994;SDS011;8614;48.522;9.206;2023-02-28T12:59:17;16.43;;;14.93;;
16994;SDS011;8614;48.522;9.206;2023-02-28T13:01:56;16.53;;;15.00;;
16994;SDS011;8614;48.522;9.206;2023-02-28T13:04:47;16.80;;;15.30;;
16994;SDS011;8614;48.522;9.206;2023-02-28T13:07:38;16.10;;;14.67;;
16994;SDS011;8614;48.522;9.206;2023-02-28T13:10:41;15.80;;;14.40;;
16994;SDS011;8614;48.522;9.206;2023-02-28T13:13:13;17.03;;;15.43;;
16994;SDS011;8614;48.522;9.206;2023-02-28T13:15:56;17.33;;;15.73;;
16994;SDS011;8614;48.522;9.206;2023-02-28T13:18:32;16.23;;;14.67;;
16994;SDS011;8614;48.522;9.206;2023-02-28T13:21:02;16.23;;;14.80;;
16994;SDS011;8614;48.522;9.206;2023-02-28T13:23:56;15.73;;;14.13;;
16994;SDS011;8614;48.522;9.206;2023-02-28T13:29:36;15.80;;;14.20;;
16994;SDS011;8614;48.522;9.206;2023-02-28T13:44:21;16.77;;;15.07;;
16994;SDS011;8614;48.522;9.206;2023-02-28T13:50:05;16.97;;;15.27;;
16994;SDS011;8614;48.522;9.206;2023-02-28T13:52:43;16.90;;;15.30;;
16994;SDS011;8614;48.522;9.206;2023-02-28T13:55:21;16.37;;;14.90;;
16994;SDS011;8614;48.522;9.206;2023-02-28T14:01:23;15.63;;;14.23;;
16994;SDS011;8614;48.522;9.206;2023-02-28T14:04:12;16.13;;;14.77;;
16994;SDS011;8614;48.522;9.206;2023-02-28T14:06:55;15.37;;;13.97;;
16994;SDS011;8614;48.522;9.206;2023-02-28T14:09:24;15.10;;;13.70;;
16994;SDS011;8614;48.522;9.206;2023-02-28T14:15:28;17.07;;;15.63;;
16994;SDS011;8614;48.522;9.206;2023-02-28T14:18:17;15.83;;;14.40;;
16994;SDS011;8614;48.522;9.206;2023-02-28T14:20:52;16.63;;;15.13;;
16994;SDS011;8614;48.522;9.206;2023-02-28T14:23:36;15.73;;;14.17;;
16994;SDS011;8614;48.522;9.206;2023-02-28T14:26:33;15.67;;;14.23;;
16994;SDS011;8614;48.522;9.206;2023-02-28T14:29:27;15.97;;;14.50;;
16994;SDS011;8614;48.522;9.206;2023-02-28T14:32:03;15.50;;;14.20;;
16994;SDS011;8614;48.522;9.206;2023-02-28T14:34:39;16.63;;;15.23;;
16994;SDS011;8614;48.522;9.206;2023-02-28T14:37:13;16.30;;;14.73;;
16994;SDS011;8614;48.522;9.206;2023-02-28T14:39:43;16.13;;;14.73;;
16994;SDS011;8614;48.522;9.206;2023-02-28T14:42:25;16.37;;;14.77;;
16994;SDS011;8614;48.522;9.206;2023-02-28T14:44:55;16.50;;;14.97;;
16994;SDS011;8614;48.522;9.206;2023-02-28T14:47:23;15.87;;;14.57;;
16994;SDS011;8614;48.522;9.206;2023-02-28T14:49:52;16.27;;;14.70;;
16994;SDS011;8614;48.522;9.206;2023-02-28T14:52:22;15.93;;;14.43;;
16994;SDS011;8614;48.522;9.206;2023-02-28T14:54:52;15.43;;;14.10;;
16994;SDS011;8614;48.522;9.206;2023-02-28T14:57:21;15.90;;;14.47;;
16994;SDS011;8614;48.522;9.206;2023-02-28T14:59:56;15.77;;;14.47;;
16994;SDS011;8614;48.522;9.206;2023-02-28T15:02:35;16.73;;;15.33;;
16994;SDS011;8614;48.522;9.206;2023-02-28T15:05:10;15.43;;;14.20;;
16994;SDS011;8614;48.522;9.206;2023-02-28T15:07:59;16.23;;;14.60;;
16994;SDS011;8614;48.522;9.206;2023-02-28T15:10:27;15.53;;;14.20;;
16994;SDS011;8614;48.522;9.206;2023-02-28T15:12:56;15.50;;;14.20;;
16994;SDS011;8614;48.522;9.206;2023-02-28T15:15:24;15.47;;;13.87;;
16994;SDS011;8614;48.522;9.206;2023-02-28T15:17:59;16.07;;;14.57;;
16994;SDS011;8614;48.522;9.206;2023-02-28T15:20:28;15.00;;;13.63;;
16994;SDS011;8614;48.522;9.206;2023-02-28T15:22:57;16.00;;;14.50;;
16994;SDS011;8614;48.522;9.206;2023-02-28T15:25:24;15.27;;;13.87;;
16994;SDS011;8614;48.522;9.206;2023-02-28T15:27:52;15.57;;;14.17;;
16994;SDS011;8614;48.522;9.206;2023-02-28T15:30:24;15.70;;;14.33;;
16994;SDS011;8614;48.522;9.206;2023-02-28T15:33:06;15.93;;;14.43;;
16994;SDS011;8614;48.522;9.206;2023-02-28T15:35:44;15.70;;;14.10;;
16994;SDS011;8614;48.522;9.206;2023-02-28T15:38:16;14.97;;;13.50;;
16994;SDS011;8614;48.522;9.206;2023-02-28T15:40:49;15.37;;;13.87;;
16994;SDS011;8614;48.522;9.206;2023-02-28T15:43:26;14.93;;;13.63;;
16994;SDS011;8614;48.522;9.206;2023-02-28T15:45:55;14.07;;;12.87;;
16994;SDS011;8614;48.522;9.206;2023-02-28T15:48:26;15.53;;;14.13;;
16994;SDS011;8614;48.522;9.206;2023-02-28T15:50:56;15.83;;;14.23;;
16994;SDS011;8614;48.522;9.206;2023-02-28T15:53:30;15.27;;;13.83;;
16994;SDS011;8614;48.522;9.206;2023-02-28T15:56:00;14.50;;;13.20;;
16994;SDS011;8614;48.522;9.206;2023-02-28T15:58:28;15.20;;;13.77;;
16994;SDS011;8614;48.522;9.206;2023-02-28T16:01:06;14.10;;;12.90;;
16994;SDS011;8614;48.522;9.206;2023-02-28T16:03:43;15.13;;;13.70;;
16994;SDS011;8614;48.522;9.206;2023-02-28T16:09:11;14.97;;;13.67;;
16994;SDS011;8614;48.522;9.206;2023-02-28T16:11:41;15.23;;;13.97;;
16994;SDS011;8614;48.522;9.206;2023-02-28T16:14:15;16.50;;;15.00;;
16994;SDS011;8614;48.522;9.206;2023-02-28T16:16:44;15.67;;;14.27;;
16994;SDS011;8614;48.522;9.206;2023-02-28T16:19:12;16.37;;;14.80;;
16994;SDS011;8614;48.522;9.206;2023-02-28T16:21:39;16.07;;;14.57;;
16994;SDS011;8614;48.522;9.206;2023-02-28T16:24:06;16.17;;;14.30;;
16994;SDS011;8614;48.522;9.206;2023-02-28T16:26:34;15.53;;;14.13;;
16994;SDS011;8614;48.522;9.206;2023-02-28T16:29:02;16.23;;;14.67;;
16994;SDS011;8614;48.522;9.206;2023-02-28T16:31:30;15.00;;;13.70;;
16994;SDS011;8614;48.522;9.206;2023-02-28T16:33:59;15.47;;;13.97;;
16994;SDS011;8614;48.522;9.206;2023-02-28T16:36:26;15.53;;;14.13;;
16994;SDS011;8614;48.522;9.206;2023-02-28T16:38:53;15.30;;;14.00;;
16994;SDS011;8614;48.522;9.206;2023-02-28T16:41:22;16.10;;;14.47;;
16994;SDS011;8614;48.522;9.206;2023-02-28T16:43:54;16.30;;;14.63;;
16994;SDS011;8614;48.522;9.206;2023-02-28T16:46:23;15.33;;;14.03;;
16994;SDS011;8614;48.522;9.206;2023-02-28T16:48:53;16.00;;;14.60;;
16994;SDS011;8614;48.522;9.206;2023-02-28T16:51:20;16.07;;;14.57;;
16994;SDS011;8614;48.522;9.206;2023-02-28T16:53:47;15.80;;;14.30;;
16994;SDS011;8614;48.522;9.206;2023-02-28T16:56:15;17.90;;;14.17;;
16994;SDS011;8614;48.522;9.206;2023-02-28T16:58:44;14.53;;;13.13;;
16994;SDS011;8614;48.522;9.206;2023-02-28T17:01:13;14.83;;;13.40;;
16994;SDS011;8614;48.522;9.206;2023-02-28T17:03:40;15.53;;;14.00;;
16994;SDS011;8614;48.522;9.206;2023-02-28T17:06:12;15.93;;;14.43;;
16994;SDS011;8614;48.522;9.206;2023-02-28T17:08:46;16.10;;;14.50;;
16994;SDS011;8614;48.522;9.206;2023-02-28T17:11:12;15.33;;;13.93;;
16994;SDS011;8614;48.522;9.206;2023-02-28T17:13:39;15.87;;;14.17;;
16994;SDS011;8614;48.522;9.206;2023-02-28T17:16:08;16.97;;;15.37;;
16994;SDS011;8614;48.522;9.206;2023-02-28T17:18:43;17.13;;;15.10;;
16994;SDS011;8614;48.522;9.206;2023-02-28T17:21:12;16.43;;;14.73;;
16994;SDS011;8614;48.522;9.206;2023-02-28T17:23:41;15.77;;;14.27;;
16994;SDS011;8614;48.522;9.206;2023-02-28T17:26:11;16.30;;;14.70;;
16994;SDS011;8614;48.522;9.206;2023-02-28T17:28:39;17.07;;;15.37;;
16994;SDS011;8614;48.522;9.206;2023-02-28T17:31:07;15.93;;;14.23;;
16994;SDS011;8614;48.522;9.206;2023-02-28T17:33:35;15.40;;;13.90;;
16994;SDS011;8614;48.522;9.206;2023-02-28T17:36:02;16.00;;;14.50;;
16994;SDS011;8614;48.522;9.206;2023-02-28T17:38:29;16.93;;;15.27;;
16994;SDS011;8614;48.522;9.206;2023-02-28T17:40:56;16.43;;;14.83;;
16994;SDS011;8614;48.522;9.206;2023-02-28T17:43:23;15.90;;;14.40;;
16994;SDS011;8614;48.522;9.206;2023-02-28T17:45:51;17.70;;;15.83;;
16994;SDS011;8614;48.522;9.206;2023-02-28T17:48:18;17.20;;;15.60;;
16994;SDS011;8614;48.522;9.206;2023-02-28T17:50:46;17.50;;;15.77;;
16994;SDS011;8614;48.522;9.206;2023-02-28T17:53:13;18.00;;;15.73;;
16994;SDS011;8614;48.522;9.206;2023-02-28T17:55:40;16.13;;;14.50;;
16994;SDS011;8614;48.522;9.206;2023-02-28T17:58:08;21.00;;;15.50;;
16994;SDS011;8614;48.522;9.206;2023-02-28T18:00:41;17.07;;;15.23;;
16994;SDS011;8614;48.522;9.206;2023-02-28T18:03:38;16.17;;;14.67;;
16994;SDS011;8614;48.522;9.206;2023-02-28T18:06:09;16.37;;;14.83;;
16994;SDS011;8614;48.522;9.206;2023-02-28T18:08:43;16.60;;;14.90;;
16994;SDS011;8614;48.522;9.206;2023-02-28T18:11:10;15.77;;;14.17;;
16994;SDS011;8614;48.522;9.206;2023-02-28T18:14:02;16.47;;;14.83;;
16994;SDS011;8614;48.522;9.206;2023-02-28T18:16:39;15.97;;;14.47;;
16994;SDS011;8614;48.522;9.206;2023-02-28T18:19:13;16.67;;;14.97;;
16994;SDS011;8614;48.522;9.206;2023-02-28T18:21:44;17.50;;;15.87;;
16994;SDS011;8614;48.522;9.206;2023-02-28T18:24:14;16.97;;;15.27;;
16994;SDS011;8614;48.522;9.206;2023-02-28T18:26:44;14.97;;;13.50;;
16994;SDS011;8614;48.522;9.206;2023-02-28T18:29:15;16.30;;;14.63;;
16994;SDS011;8614;48.522;9.206;2023-02-28T18:31:46;15.90;;;14.50;;